Time;durP1;ratioP1;P1;durP2;ratioP2;P2;SDS_P1;SDS_P2;PMS_P1;PMS_P2;Temp;Humidity;BMP_temperature;BMP_pressure;BME280_temperature;BME280_humidity;BME280_pressure;Samples;Min_cycle;Max_cycle;Signal;HPM_P1;HPM_P2
2021/08/13 00:00:17;;;;;;;;;;;;;;;17.05;100.00;99022.38;5079396;28;19944;-78
2021/08/13 00:02:51;;;;;;;;;;;;;;;16.96;100.00;99025.16;5036013;28;19929;-78
2021/08/13 00:05:19;;;;;;;;;;;;;;;17.00;100.00;99036.28;5062760;28;19924;-78
2021/08/13 00:07:57;;;;;;;;;;;;;;;17.06;100.00;99028.78;5072397;28;19971;-78
2021/08/13 00:10:28;;;;;;;;;;;;;;;17.02;100.00;99034.59;5089996;28;19959;-78
2021/08/13 00:12:58;;;;;;;;;;;;;;;17.08;100.00;99027.06;5059441;28;20379;-78
2021/08/13 00:15:26;;;;;;;;;;;;;;;17.03;100.00;99044.63;5047662;28;19925;-78
2021/08/13 00:17:56;;;;;;;;;;;;;;;17.13;100.00;99036.97;5037148;28;19925;-78
2021/08/13 00:20:23;;;;;;;;;;;;;;;17.14;100.00;99035.69;5073409;28;19925;-78
2021/08/13 00:22:53;;;;;;;;;;;;;;;17.14;100.00;99036.50;5059941;28;19932;-78
2021/08/13 00:25:24;;;;;;;;;;;;;;;17.23;100.00;99036.50;5052348;28;20491;-78
2021/08/13 00:27:54;;;;;;;;;;;;;;;17.28;100.00;99046.38;5052029;28;20392;-78
2021/08/13 00:30:26;;;;;;;;;;;;;;;17.48;100.00;99049.56;5099902;28;19952;-78
2021/08/13 00:32:54;;;;;;;;;;;;;;;17.34;100.00;99050.16;5031045;28;19998;-78
2021/08/13 00:35:23;;;;;;;;;;;;;;;17.32;100.00;99047.00;5051392;28;19925;-78
2021/08/13 00:37:53;;;;;;;;;;;;;;;17.11;100.00;99057.19;5050332;28;19988;-78
2021/08/13 00:40:23;;;;;;;;;;;;;;;17.18;100.00;99056.09;5068178;28;20297;-78
2021/08/13 00:42:53;;;;;;;;;;;;;;;17.38;100.00;99050.78;5066583;28;19925;-78
2021/08/13 00:45:39;;;;;;;;;;;;;;;17.09;100.00;99053.25;5108785;28;20269;-78
2021/08/13 00:48:51;;;;;;;;;;;;;;;16.90;100.00;99049.63;5062064;28;20407;-78
2021/08/13 00:52:01;;;;;;;;;;;;;;;17.05;100.00;99066.72;5086298;28;19978;-78
2021/08/13 00:54:41;;;;;;;;;;;;;;;17.02;100.00;99050.72;5050307;28;19967;-79
2021/08/13 00:57:16;;;;;;;;;;;;;;;17.03;100.00;99038.19;5019681;28;19948;-78
2021/08/13 01:00:50;;;;;;;;;;;;;;;;;;;;;
2021/08/13 01:03:30;;;;;;;;;;;;;;;16.49;100.00;99052.91;5072621;28;20029;-78
2021/08/13 01:06:07;;;;;;;;;;;;;;;16.47;100.00;99051.78;5055755;28;19925;-78
2021/08/13 01:09:03;;;;;;;;;;;;;;;16.74;100.00;99049.06;5042065;28;20278;-78
2021/08/13 01:12:00;;;;;;;;;;;;;;;16.58;100.00;99043.69;5034539;28;19925;-78
2021/08/13 01:15:13;;;;;;;;;;;;;;;16.88;100.00;99045.66;5048895;28;20022;-78
2021/08/13 01:18:13;;;;;;;;;;;;;;;16.58;100.00;99046.50;5049812;28;20299;-78
2021/08/13 01:21:03;;;;;;;;;;;;;;;16.50;100.00;99048.03;5065703;28;19947;-78
2021/08/13 01:24:03;;;;;;;;;;;;;;;16.75;100.00;99047.84;5057815;28;19925;-78
2021/08/13 01:26:39;;;;;;;;;;;;;;;16.90;100.00;99043.97;5055518;28;20368;-78
2021/08/13 01:29:28;;;;;;;;;;;;;;;16.91;100.00;99044.75;5067526;28;19931;-78
2021/08/13 01:31:55;;;;;;;;;;;;;;;16.92;100.00;99040.69;5059312;28;20015;-80
2021/08/13 01:34:23;;;;;;;;;;;;;;;16.77;100.00;99043.28;5075433;28;19931;-78
2021/08/13 01:36:52;;;;;;;;;;;;;;;17.03;100.00;99038.19;5075115;28;19935;-77
2021/08/13 01:39:20;;;;;;;;;;;;;;;16.90;100.00;99043.97;5075304;28;20372;-78
2021/08/13 01:41:53;;;;;;;;;;;;;;;17.23;100.00;99047.00;5108601;28;19928;-78
2021/08/13 01:44:21;;;;;;;;;;;;;;;16.98;100.00;99052.94;5058992;28;19924;-78
2021/08/13 01:47:00;;;;;;;;;;;;;;;16.92;100.00;99049.16;5092919;28;19924;-78
2021/08/13 01:49:30;;;;;;;;;;;;;;;17.11;100.00;99042.28;5058214;28;19925;-78
2021/08/13 01:52:03;;;;;;;;;;;;;;;17.10;100.00;99057.66;5075282;28;19967;-78
2021/08/13 01:54:33;;;;;;;;;;;;;;;17.26;100.00;99055.31;5075040;28;19985;-78
2021/08/13 01:57:03;;;;;;;;;;;;;;;17.05;100.00;99061.09;5058355;28;19925;-78
2021/08/13 01:59:33;;;;;;;;;;;;;;;16.92;100.00;99051.97;5070880;28;19951;-78
2021/08/13 02:02:00;;;;;;;;;;;;;;;16.77;100.00;99042.50;5074992;28;19924;-78
2021/08/13 02:04:33;;;;;;;;;;;;;;;16.55;100.00;99038.97;5074927;28;19930;-78
2021/08/13 02:07:04;;;;;;;;;;;;;;;16.79;100.00;99031.53;5074831;28;19925;-78
2021/08/13 02:09:31;;;;;;;;;;;;;;;16.75;100.00;99030.91;5060557;28;19951;-78
2021/08/13 02:12:24;;;;;;;;;;;;;;;16.59;100.00;99028.34;5074604;28;19998;-78
2021/08/13 02:15:04;;;;;;;;;;;;;;;16.55;100.00;99027.69;5074743;28;19925;-78
2021/08/13 02:17:44;;;;;;;;;;;;;;;16.51;100.00;99041.16;5062321;28;19929;-78
2021/08/13 02:20:15;;;;;;;;;;;;;;;16.61;100.00;99043.56;5038137;28;19924;-78
2021/08/13 02:22:59;;;;;;;;;;;;;;;16.69;100.00;99027.13;5036076;28;20364;-78
2021/08/13 02:26:02;;;;;;;;;;;;;;;16.52;100.00;99035.06;5088352;28;19925;-78
2021/08/13 02:29:01;;;;;;;;;;;;;;;16.64;100.00;99020.06;5064136;28;19931;-78
2021/08/13 02:31:41;;;;;;;;;;;;;;;16.40;100.00;99016.19;5043988;28;19925;-79
2021/08/13 02:34:16;;;;;;;;;;;;;;;16.63;100.00;99012.06;5051116;28;19959;-78
2021/08/13 02:37:11;;;;;;;;;;;;;;;16.69;100.00;99013.03;5020239;28;19991;-78
2021/08/13 02:40:00;;;;;;;;;;;;;;;16.56;100.00;99015.97;5049406;28;20019;-78
2021/08/13 02:42:40;;;;;;;;;;;;;;;16.60;100.00;99001.72;5049478;28;19925;-78
2021/08/13 02:45:13;;;;;;;;;;;;;;;16.65;100.00;99009.53;5065977;28;19925;-77
2021/08/13 02:48:18;;;;;;;;;;;;;;;;;;;;;
2021/08/13 02:52:14;;;;;;;;;;;;;;;16.67;100.00;99018.34;5040607;28;19928;-79
2021/08/13 03:01:25;;;;;;;;;;;;;;;16.27;100.00;99019.09;4996210;28;20347;-78
2021/08/13 03:04:50;;;;;;;;;;;;;;;16.20;100.00;99008.13;4997229;28;19926;-79
2021/08/13 03:07:29;;;;;;;;;;;;;;;16.30;100.00;99016.63;4991438;28;20016;-79
2021/08/13 03:10:41;;;;;;;;;;;;;;;16.09;100.00;99002.09;5013371;28;19959;-79
2021/08/13 03:13:25;;;;;;;;;;;;;;;16.39;100.00;98996.91;5052009;28;19925;-79
2021/08/13 03:24:37;;;;;;;;;;;;;;;16.00;100.00;99004.88;5030134;28;19924;-78
2021/08/13 03:27:25;;;;;;;;;;;;;;;16.18;100.00;98999.31;4963021;28;19925;-78
2021/08/13 03:30:09;;;;;;;;;;;;;;;16.60;100.00;98996.06;5015791;28;20253;-79
2021/08/13 03:33:44;;;;;;;;;;;;;;;16.24;100.00;98997.47;4959424;28;20389;-79
2021/08/13 03:36:11;;;;;;;;;;;;;;;16.35;100.00;98997.03;4970524;28;20399;-78
2021/08/13 03:38:41;;;;;;;;;;;;;;;16.31;100.00;99004.06;4960016;28;19926;-79
2021/08/13 03:41:21;;;;;;;;;;;;;;;16.10;100.00;98994.41;4947215;28;19932;-79
2021/08/13 03:43:51;;;;;;;;;;;;;;;16.31;100.00;99001.25;4942031;28;19937;-79
2021/08/13 03:46:24;;;;;;;;;;;;;;;16.16;100.00;98996.16;4971931;28;19926;-79
2021/08/13 03:48:56;;;;;;;;;;;;;;;16.12;100.00;98994.75;4935636;28;19961;-78
2021/08/13 03:51:52;;;;;;;;;;;;;;;16.03;100.00;98989.84;4932974;28;19926;-78
2021/08/13 03:54:34;;;;;;;;;;;;;;;15.90;100.00;98991.97;4957054;28;19926;-79
2021/08/13 03:57:09;;;;;;;;;;;;;;;15.98;100.00;99001.72;4956716;28;19988;-79
2021/08/13 03:59:37;;;;;;;;;;;;;;;16.37;100.00;99008.66;4924896;28;19933;-79
2021/08/13 04:02:31;;;;;;;;;;;;;;;16.19;100.00;99000.88;4956905;28;19927;-78
2021/08/13 04:05:12;;;;;;;;;;;;;;;16.11;100.00;99004.47;4972675;28;20028;-78
2021/08/13 04:07:53;;;;;;;;;;;;;;;;;;;;;
2021/08/13 04:11:00;;;;;;;;;;;;;;;16.04;100.00;99004.72;5007150;28;19948;-78
2021/08/13 04:14:42;;;;;;;;;;;;;;;16.13;100.00;98993.47;5052309;28;19928;-79
2021/08/13 04:17:47;;;;;;;;;;;;;;;15.99;100.00;98996.88;5035325;28;20308;-79
2021/08/13 04:25:25;;;;;;;;;;;;;;;16.08;100.00;99008.19;5045734;28;19976;-79
2021/08/13 04:28:31;;;;;;;;;;;;;;;;;;;;;
2021/08/13 04:31:41;;;;;;;;;;;;;;;15.88;100.00;99019.03;5040605;28;19982;-79
2021/08/13 04:34:11;;;;;;;;;;;;;;;15.66;100.00;99023.91;5068701;28;20268;-78
2021/08/13 04:37:15;;;;;;;;;;;;;;;16.07;100.00;99027.13;5031073;28;20511;-79
2021/08/13 04:39:42;;;;;;;;;;;;;;;15.99;100.00;99025.81;5068743;28;20358;-79
2021/08/13 04:42:13;;;;;;;;;;;;;;;15.93;100.00;99016.41;5035627;28;20395;-79
2021/08/13 04:45:14;;;;;;;;;;;;;;;15.91;100.00;99006.84;5038426;28;20364;-78
2021/08/13 04:47:55;;;;;;;;;;;;;;;15.82;100.00;99004.78;5035902;28;19929;-79
2021/08/13 04:50:55;;;;;;;;;;;;;;;15.73;100.00;99001.91;5057513;28;19925;-78
2021/08/13 04:54:31;;;;;;;;;;;;;;;15.77;100.00;98990.47;5060251;28;20374;-78
2021/08/13 04:57:10;;;;;;;;;;;;;;;15.70;100.00;98994.38;5053848;28;19931;-79
2021/08/13 04:59:49;;;;;;;;;;;;;;;15.84;100.00;98990.97;5035354;28;20026;-78
2021/08/13 05:02:26;;;;;;;;;;;;;;;15.85;100.00;98986.94;5051779;28;19924;-79
2021/08/13 05:05:32;;;;;;;;;;;;;;;15.84;100.00;99001.50;5058790;28;20384;-79
2021/08/13 05:08:09;;;;;;;;;;;;;;;15.89;100.00;98998.84;5068771;28;19925;-78
2021/08/13 05:11:15;;;;;;;;;;;;;;;15.81;100.00;98999.59;4994951;28;19979;-79
2021/08/13 05:14:04;;;;;;;;;;;;;;;15.51;100.00;99001.09;5017171;28;19964;-78
2021/08/13 05:17:35;;;;;;;;;;;;;;;;;;;;;
2021/08/13 05:21:22;;;;;;;;;;;;;;;15.95;100.00;99002.66;5004588;28;20011;-78
2021/08/13 05:34:28;;;;;;;;;;;;;;;16.03;100.00;98992.69;4890170;29;19938;-78
2021/08/13 05:37:59;;;;;;;;;;;;;;;15.90;100.00;99003.22;4932911;29;19919;-78
2021/08/13 05:40:57;;;;;;;;;;;;;;;15.95;100.00;99008.28;4931271;29;20366;-78
2021/08/13 05:43:49;;;;;;;;;;;;;;;15.91;100.00;99010.47;4904252;29;20298;-78
2021/08/13 05:46:17;;;;;;;;;;;;;;;16.12;100.00;99012.44;4936583;28;19926;-78
2021/08/13 05:48:50;;;;;;;;;;;;;;;16.05;100.00;99023.97;4993389;28;20023;-78
2021/08/13 05:51:18;;;;;;;;;;;;;;;15.93;100.00;99027.66;4991800;28;19926;-78
2021/08/13 05:53:46;;;;;;;;;;;;;;;15.96;100.00;99021.13;5009516;28;20011;-78
2021/08/13 05:56:14;;;;;;;;;;;;;;;16.14;100.00;99026.09;5048305;28;19932;-77
2021/08/13 06:02:05;;;;;;;;;;;;;;;16.03;100.00;99018.03;5048642;28;19933;-78
2021/08/13 06:04:57;;;;;;;;;;;;;;;16.11;100.00;99027.78;5033017;28;19944;-78
2021/08/13 06:07:25;;;;;;;;;;;;;;;16.26;100.00;99039.28;5051068;28;20360;-78
2021/08/13 06:09:53;;;;;;;;;;;;;;;16.34;100.00;99039.81;5053166;28;20422;-78
2021/08/13 06:12:22;;;;;;;;;;;;;;;16.32;100.00;99043.09;5033482;28;19925;-78
2021/08/13 06:14:58;;;;;;;;;;;;;;;16.35;100.00;99047.00;5063682;28;19933;-78
2021/08/13 06:17:30;;;;;;;;;;;;;;;16.18;100.00;99047.25;5047897;28;19925;-79
2021/08/13 06:19:59;;;;;;;;;;;;;;;16.19;100.00;99051.63;5052764;28;19931;-78
2021/08/13 06:22:27;;;;;;;;;;;;;;;16.23;100.00;99051.50;5051525;28;19924;-77
2021/08/13 06:24:55;;;;;;;;;;;;;;;16.52;100.00;99059.66;5057577;28;19936;-76
2021/08/13 06:27:23;;;;;;;;;;;;;;;16.41;100.00;99047.97;5032701;28;19925;-78
2021/08/13 06:29:53;;;;;;;;;;;;;;;16.66;100.00;99057.03;5068615;28;19931;-79
2021/08/13 06:32:20;;;;;;;;;;;;;;;16.67;100.00;99060.66;5050283;28;19979;-78
2021/08/13 06:34:47;;;;;;;;;;;;;;;16.51;100.00;99056.03;5055259;28;19929;-78
2021/08/13 06:37:14;;;;;;;;;;;;;;;16.58;100.00;99060.63;5053653;28;20348;-79
2021/08/13 06:39:43;;;;;;;;;;;;;;;16.77;100.00;99062.25;5068398;28;19925;-79
2021/08/13 06:42:13;;;;;;;;;;;;;;;16.77;100.00;99053.78;5069370;28;19925;-79
2021/08/13 06:44:54;;;;;;;;;;;;;;;16.67;100.00;99052.19;5037393;28;19928;-79
2021/08/13 06:47:23;;;;;;;;;;;;;;;16.65;100.00;99051.84;5053696;28;20036;-79
2021/08/13 06:49:51;;;;;;;;;;;;;;;16.60;100.00;99046.84;5070043;28;19924;-79
2021/08/13 06:52:19;;;;;;;;;;;;;;;16.59;100.00;99045.25;5037252;28;19929;-79
2021/08/13 06:54:47;;;;;;;;;;;;;;;16.60;100.00;99041.22;5070031;28;19959;-79
2021/08/13 06:57:14;;;;;;;;;;;;;;;16.70;100.00;99034.34;5077801;28;20282;-79
2021/08/13 06:59:41;;;;;;;;;;;;;;;17.44;100.00;99031.97;5070175;28;19947;-79
2021/08/13 07:02:09;;;;;;;;;;;;;;;19.22;100.00;99022.59;5050131;28;20500;-79
2021/08/13 07:04:36;;;;;;;;;;;;;;;20.35;100.00;99019.38;5048750;28;19932;-79
2021/08/13 07:07:03;;;;;;;;;;;;;;;20.86;100.00;99005.47;5053389;28;19968;-79
2021/08/13 07:09:30;;;;;;;;;;;;;;;21.00;100.00;99007.53;5080417;28;19936;-79
2021/08/13 07:11:59;;;;;;;;;;;;;;;21.91;100.00;99004.00;5084019;28;20010;-78
2021/08/13 07:14:26;;;;;;;;;;;;;;;21.74;100.00;99003.00;5036536;28;19931;-78
2021/08/13 07:16:53;;;;;;;;;;;;;;;22.63;100.00;99003.38;5050857;28;20011;-79
2021/08/13 07:19:20;;;;;;;;;;;;;;;23.32;100.00;98995.53;5054379;28;19947;-78
2021/08/13 07:21:47;;;;;;;;;;;;;;;22.49;100.00;99003.50;5052813;28;20043;-78
2021/08/13 07:24:19;;;;;;;;;;;;;;;21.77;100.00;99005.66;5052388;28;20304;-78
2021/08/13 07:27:00;;;;;;;;;;;;;;;22.14;100.00;99012.28;5048410;28;20008;-79
2021/08/13 07:29:34;;;;;;;;;;;;;;;22.55;100.00;99019.34;5052801;28;20018;-78
2021/08/13 07:32:03;;;;;;;;;;;;;;;22.43;100.00;99011.22;5031801;28;19970;-78
2021/08/13 07:34:33;;;;;;;;;;;;;;;22.64;100.00;99015.56;5046652;28;19925;-78
2021/08/13 07:37:00;;;;;;;;;;;;;;;22.59;100.00;99010.59;5042052;28;20375;-78
2021/08/13 07:39:35;;;;;;;;;;;;;;;22.46;100.00;99008.13;5066998;28;19948;-78
2021/08/13 07:42:04;;;;;;;;;;;;;;;22.60;100.00;99009.31;5052768;28;19925;-78
2021/08/13 07:44:32;;;;;;;;;;;;;;;22.50;100.00;99017.28;5069233;28;20032;-78
2021/08/13 07:47:10;;;;;;;;;;;;;;;22.98;100.00;99012.44;5069515;28;19925;-78
2021/08/13 07:49:37;;;;;;;;;;;;;;;22.22;100.00;99015.44;5052623;28;20283;-78
2021/08/13 07:52:04;;;;;;;;;;;;;;;22.91;100.00;99014.97;5053062;28;19928;-78
2021/08/13 07:54:33;;;;;;;;;;;;;;;23.03;100.00;99013.75;5052707;28;19992;-80
2021/08/13 07:57:01;;;;;;;;;;;;;;;23.13;100.00;99017.19;5052183;28;19925;-78
2021/08/13 07:59:28;;;;;;;;;;;;;;;23.29;100.00;99027.91;5062050;28;20014;-77
2021/08/13 08:01:56;;;;;;;;;;;;;;;23.48;100.00;99031.91;5033599;28;20031;-77
2021/08/13 08:04:23;;;;;;;;;;;;;;;22.99;100.00;99025.38;5052671;28;20395;-77
2021/08/13 08:06:55;;;;;;;;;;;;;;;22.98;100.00;99029.53;5049933;28;19925;-77
2021/08/13 08:09:22;;;;;;;;;;;;;;;22.66;100.00;99030.84;5054096;28;19925;-78
2021/08/13 08:11:50;;;;;;;;;;;;;;;22.79;100.00;99050.38;5052356;28;19932;-78
2021/08/13 08:14:17;;;;;;;;;;;;;;;22.42;100.00;99049.50;5053549;28;20372;-78
2021/08/13 08:16:44;;;;;;;;;;;;;;;22.56;100.00;99043.72;5052751;28;20061;-77
2021/08/13 08:19:12;;;;;;;;;;;;;;;22.33;100.00;99046.81;5085634;28;20376;-78
2021/08/13 08:21:39;;;;;;;;;;;;;;;22.51;100.00;99052.97;5052173;28;19925;-78
2021/08/13 08:24:06;;;;;;;;;;;;;;;20.96;100.00;99049.56;5053125;28;20017;-78
2021/08/13 08:26:35;;;;;;;;;;;;;;;20.16;100.00;99061.34;5053694;28;19931;-78
2021/08/13 08:29:02;;;;;;;;;;;;;;;21.28;100.00;99077.66;5053012;28;19932;-78
2021/08/13 08:31:30;;;;;;;;;;;;;;;21.39;100.00;99054.28;5053341;28;19967;-77
2021/08/13 08:33:56;;;;;;;;;;;;;;;22.08;100.00;99042.72;5053831;28;19931;-78
2021/08/13 08:36:23;;;;;;;;;;;;;;;21.95;100.00;99050.84;5053180;28;19931;-78
2021/08/13 08:38:50;;;;;;;;;;;;;;;21.50;100.00;99053.63;5053310;28;19931;-78
2021/08/13 08:41:17;;;;;;;;;;;;;;;22.36;100.00;99055.16;5053101;28;19924;-79
2021/08/13 08:43:47;;;;;;;;;;;;;;;21.49;100.00;99061.41;5053012;28;20023;-77
2021/08/13 08:46:16;;;;;;;;;;;;;;;21.14;100.00;99060.66;5052548;28;19924;-78
2021/08/13 08:48:44;;;;;;;;;;;;;;;21.86;100.00;99070.94;5053382;28;19925;-78
2021/08/13 08:51:11;;;;;;;;;;;;;;;21.16;100.00;99066.63;5053474;28;19924;-76
2021/08/13 08:53:38;;;;;;;;;;;;;;;21.45;100.00;99075.03;5050463;28;19943;-76
2021/08/13 08:56:05;;;;;;;;;;;;;;;21.88;100.00;99061.88;5052685;28;19988;-77
2021/08/13 08:58:33;;;;;;;;;;;;;;;22.74;100.00;99053.94;5039161;28;19940;-76
2021/08/13 09:01:01;;;;;;;;;;;;;;;22.67;100.00;99060.88;5047212;28;20383;-77
2021/08/13 09:03:28;;;;;;;;;;;;;;;22.63;100.00;99060.34;5051733;28;19929;-76
2021/08/13 09:05:55;;;;;;;;;;;;;;;22.49;100.00;99066.91;5052432;28;19929;-76
2021/08/13 09:08:22;;;;;;;;;;;;;;;22.48;100.00;99065.34;5053343;28;19929;-76
2021/08/13 09:10:49;;;;;;;;;;;;;;;22.43;100.00;99054.69;5051131;28;19925;-76
2021/08/13 09:13:20;;;;;;;;;;;;;;;22.20;100.00;99043.63;5051052;28;20019;-76
2021/08/13 09:15:47;;;;;;;;;;;;;;;22.43;100.00;99049.00;5051818;28;20003;-76
2021/08/13 09:18:19;;;;;;;;;;;;;;;21.64;100.00;99053.59;5042631;28;20295;-76
2021/08/13 09:20:47;;;;;;;;;;;;;;;21.31;100.00;99067.38;5053212;28;19931;-76
2021/08/13 09:23:31;;;;;;;;;;;;;;;21.04;100.00;99062.84;5049530;28;19996;-76
2021/08/13 09:25:59;;;;;;;;;;;;;;;20.68;100.00;99056.81;5086729;28;19931;-77
2021/08/13 09:28:52;;;;;;;;;;;;;;;21.08;100.00;99068.34;5055941;28;19939;-77
2021/08/13 09:31:35;;;;;;;;;;;;;;;21.22;100.00;99070.31;5050642;28;19962;-77
2021/08/13 09:34:09;;;;;;;;;;;;;;;21.31;100.00;99053.16;5052034;28;19929;-78
2021/08/13 09:36:38;;;;;;;;;;;;;;;21.86;100.00;99064.44;5048402;28;19932;-78
2021/08/13 09:39:06;;;;;;;;;;;;;;;21.76;100.00;99063.84;5052249;28;19925;-77
2021/08/13 09:41:49;;;;;;;;;;;;;;;21.67;100.00;99081.03;5052915;28;20025;-78
2021/08/13 09:44:33;;;;;;;;;;;;;;;21.47;100.00;99071.69;5068066;28;19924;-77
2021/08/13 09:47:01;;;;;;;;;;;;;;;21.49;100.00;99063.47;5031157;28;20012;-78
2021/08/13 09:49:30;;;;;;;;;;;;;;;21.49;100.00;99078.47;5060556;28;19925;-77
2021/08/13 09:52:09;;;;;;;;;;;;;;;21.55;100.00;99078.53;5050337;28;19932;-78
2021/08/13 09:54:37;;;;;;;;;;;;;;;22.14;100.00;99074.06;5066988;28;19939;-78
2021/08/13 09:57:09;;;;;;;;;;;;;;;21.40;100.00;99062.31;5067005;28;20411;-77
2021/08/13 09:59:36;;;;;;;;;;;;;;;21.36;100.00;99078.81;5046635;28;19925;-77
2021/08/13 10:02:14;;;;;;;;;;;;;;;21.95;100.00;99073.59;5051159;28;19924;-76
2021/08/13 10:04:41;;;;;;;;;;;;;;;21.66;100.00;99076.59;5052102;28;20466;-76
2021/08/13 10:07:08;;;;;;;;;;;;;;;21.71;100.00;99073.03;5050243;28;20089;-76
2021/08/13 10:09:35;;;;;;;;;;;;;;;21.24;100.00;99071.41;5052257;28;19932;-76
2021/08/13 10:12:04;;;;;;;;;;;;;;;21.63;100.00;99091.81;5050790;28;19932;-77
2021/08/13 10:14:38;;;;;;;;;;;;;;;21.37;100.00;99090.97;5066973;28;19924;-76
2021/08/13 10:17:06;;;;;;;;;;;;;;;21.23;100.00;99088.94;5062367;28;19925;-76
2021/08/13 10:19:33;;;;;;;;;;;;;;;21.53;100.00;99098.94;5063304;28;19924;-77
2021/08/13 10:22:02;;;;;;;;;;;;;;;21.57;100.00;99088.13;5050481;28;19924;-75
2021/08/13 10:24:29;;;;;;;;;;;;;;;21.19;100.00;99091.19;5050529;28;19935;-75
2021/08/13 10:26:56;;;;;;;;;;;;;;;21.08;100.00;99093.91;5084552;28;19950;-76
2021/08/13 10:29:24;;;;;;;;;;;;;;;21.49;100.00;99095.53;5033798;28;19928;-76
2021/08/13 10:31:52;;;;;;;;;;;;;;;21.34;100.00;99074.91;5050558;28;19929;-76
2021/08/13 10:34:19;;;;;;;;;;;;;;;21.27;100.00;99081.00;5051329;28;19931;-75
2021/08/13 10:36:48;;;;;;;;;;;;;;;21.48;100.00;99090.34;5051650;28;19974;-76
2021/08/13 10:39:18;;;;;;;;;;;;;;;21.69;100.00;99092.66;5056067;28;19925;-76
2021/08/13 10:41:53;;;;;;;;;;;;;;;21.84;100.00;99084.84;5049664;28;19924;-78
2021/08/13 10:44:28;;;;;;;;;;;;;;;21.74;100.00;99072.06;5050083;28;19947;-79
2021/08/13 10:46:59;;;;;;;;;;;;;;;21.90;100.00;99080.00;5062812;28;20397;-79
2021/08/13 10:49:27;;;;;;;;;;;;;;;21.51;100.00;99087.25;5050128;28;19955;-77
2021/08/13 10:52:01;;;;;;;;;;;;;;;21.78;100.00;99081.16;5049747;28;19925;-77
2021/08/13 10:54:42;;;;;;;;;;;;;;;21.64;100.00;99093.38;5066342;28;19931;-78
2021/08/13 10:57:13;;;;;;;;;;;;;;;21.66;100.00;99095.72;5049668;28;19932;-77
2021/08/13 10:59:44;;;;;;;;;;;;;;;22.07;100.00;99085.91;5078038;28;19924;-77
2021/08/13 11:02:19;;;;;;;;;;;;;;;21.92;100.00;99083.16;5050037;28;19924;-78
2021/08/13 11:05:12;;;;;;;;;;;;;;;21.87;100.00;99092.38;5047624;28;19925;-77
2021/08/13 11:07:57;;;;;;;;;;;;;;;21.61;100.00;99087.91;5042442;28;19931;-77
2021/08/13 11:10:36;;;;;;;;;;;;;;;22.15;100.00;99084.97;5047694;28;19937;-77
2021/08/13 11:13:10;;;;;;;;;;;;;;;22.26;100.00;99076.53;5047291;28;20384;-77
2021/08/13 11:15:38;;;;;;;;;;;;;;;21.84;100.00;99067.03;5046947;28;20086;-78
2021/08/13 11:18:26;;;;;;;;;;;;;;;21.55;100.00;99078.53;5047676;28;19924;-77
2021/08/13 11:20:56;;;;;;;;;;;;;;;21.34;100.00;99086.28;5046985;28;20380;-77
2021/08/13 11:23:23;;;;;;;;;;;;;;;21.83;100.00;99077.63;5047860;28;19936;-77
2021/08/13 11:25:51;;;;;;;;;;;;;;;21.94;100.00;99080.59;5046526;28;19932;-79
2021/08/13 11:28:23;;;;;;;;;;;;;;;22.17;100.00;99073.06;5046978;28;20023;-77
2021/08/13 11:30:58;;;;;;;;;;;;;;;22.15;100.00;99075.63;5047104;28;20419;-78
2021/08/13 11:33:33;;;;;;;;;;;;;;;21.93;100.00;99073.31;5047529;28;19924;-77
2021/08/13 11:36:01;;;;;;;;;;;;;;;22.02;100.00;99076.03;5031449;28;20340;-77
2021/08/13 11:38:41;;;;;;;;;;;;;;;22.06;100.00;99075.78;5039298;28;20348;-76
2021/08/13 11:41:21;;;;;;;;;;;;;;;22.07;100.00;99061.06;5047656;28;20031;-75
2021/08/13 11:43:55;;;;;;;;;;;;;;;21.99;100.00;99059.94;5047049;28;20025;-76
2021/08/13 11:46:34;;;;;;;;;;;;;;;21.87;100.00;99063.19;5065021;28;20446;-78
2021/08/13 11:49:06;;;;;;;;;;;;;;;21.50;100.00;99065.81;5050944;28;19950;-78
2021/08/13 11:51:33;;;;;;;;;;;;;;;21.53;100.00;99076.19;5067340;28;20013;-79
2021/08/13 11:54:01;;;;;;;;;;;;;;;21.65;100.00;99071.41;5067569;28;19924;-78
2021/08/13 11:56:31;;;;;;;;;;;;;;;21.73;100.00;99067.66;5051257;28;19974;-78
2021/08/13 11:59:03;;;;;;;;;;;;;;;21.90;100.00;99082.84;5037603;28;20342;-78
2021/08/13 12:01:46;;;;;;;;;;;;;;;21.98;100.00;99072.59;5052665;28;19964;-80
2021/08/13 12:04:25;;;;;;;;;;;;;;;21.62;100.00;99067.50;5040594;28;19935;-79
2021/08/13 12:07:05;;;;;;;;;;;;;;;21.83;100.00;99071.94;5052101;28;19925;-79
2021/08/13 12:09:36;;;;;;;;;;;;;;;21.78;100.00;99069.78;5059600;28;20353;-78
2021/08/13 12:12:06;;;;;;;;;;;;;;;21.76;100.00;99078.06;5030481;28;19935;-78
2021/08/13 12:14:34;;;;;;;;;;;;;;;21.93;100.00;99079.00;5052025;28;19971;-78
2021/08/13 12:17:01;;;;;;;;;;;;;;;;;;5068701;28;20354;-78
2021/08/13 12:19:28;;;;;;;;;;;;;;;22.30;100.00;99088.47;5060876;28;19925;-79
2021/08/13 12:22:03;;;;;;;;;;;;;;;22.28;100.00;99095.97;5045372;28;19994;-79
2021/08/13 12:24:35;;;;;;;;;;;;;;;21.99;100.00;99091.22;5039935;28;20303;-78
2021/08/13 12:27:06;;;;;;;;;;;;;;;22.42;100.00;99078.75;5032744;28;19934;-79
2021/08/13 12:29:35;;;;;;;;;;;;;;;21.98;100.00;99095.38;5068051;28;20014;-79
2021/08/13 12:32:03;;;;;;;;;;;;;;;21.30;100.00;99097.06;5059197;28;20327;-79
2021/08/13 12:34:32;;;;;;;;;;;;;;;21.34;100.00;99089.88;5066447;28;20380;-78
2021/08/13 12:37:06;;;;;;;;;;;;;;;21.32;100.00;99088.81;5063613;28;19933;-79
2021/08/13 12:39:39;;;;;;;;;;;;;;;21.29;100.00;99095.50;5042363;28;19925;-78
2021/08/13 12:42:07;;;;;;;;;;;;;;;21.81;100.00;99085.09;5068792;28;19925;-78
2021/08/13 12:44:35;;;;;;;;;;;;;;;21.76;100.00;99089.44;5051614;28;19924;-79
2021/08/13 12:47:03;;;;;;;;;;;;;;;22.16;100.00;99088.59;5043477;28;19947;-77
2021/08/13 12:49:30;;;;;;;;;;;;;;;22.38;100.00;99060.34;5061067;28;19925;-77
2021/08/13 12:52:20;;;;;;;;;;;;;;;21.86;100.00;99085.16;5029282;28;19929;-77
2021/08/13 12:54:48;;;;;;;;;;;;;;;21.82;100.00;99093.13;5050370;28;20444;-77
2021/08/13 12:57:18;;;;;;;;;;;;;;;22.06;100.00;99087.97;5045676;28;19928;-77
2021/08/13 12:59:49;;;;;;;;;;;;;;;22.01;100.00;99088.69;5051346;28;20016;-77
2021/08/13 13:02:23;;;;;;;;;;;;;;;22.16;100.00;99099.97;5068662;28;19929;-77
2021/08/13 13:04:51;;;;;;;;;;;;;;;21.61;100.00;99111.44;5062009;28;20368;-77
2021/08/13 13:07:27;;;;;;;;;;;;;;;21.48;100.00;99085.41;5050267;28;19925;-77
2021/08/13 13:09:56;;;;;;;;;;;;;;;21.66;100.00;99090.03;5051720;28;19932;-77
2021/08/13 13:12:28;;;;;;;;;;;;;;;21.90;100.00;99099.16;5051326;28;20299;-77
2021/08/13 13:15:05;;;;;;;;;;;;;;;22.10;100.00;99116.22;5051648;28;19925;-77
2021/08/13 13:17:34;;;;;;;;;;;;;;;21.91;100.00;99107.19;5051256;28;19952;-77
2021/08/13 13:20:09;;;;;;;;;;;;;;;22.02;100.00;99090.25;5035181;28;19925;-77
2021/08/13 13:23:15;;;;;;;;;;;;;;;22.25;100.00;99097.72;5051783;28;19932;-77
2021/08/13 13:25:52;;;;;;;;;;;;;;;22.20;100.00;99089.94;5050955;28;19924;-77
2021/08/13 13:28:38;;;;;;;;;;;;;;;22.28;100.00;99096.72;5052224;28;19929;-77
2021/08/13 13:31:19;;;;;;;;;;;;;;;22.10;100.00;99090.59;5052236;28;19932;-77
2021/08/13 13:34:21;;;;;;;;;;;;;;;21.78;100.00;99069.78;5047432;28;19925;-77
2021/08/13 13:36:51;;;;;;;;;;;;;;;21.54;100.00;99079.81;5052039;28;19925;-76
2021/08/13 13:39:27;;;;;;;;;;;;;;;21.28;100.00;99088.25;5079855;28;20019;-77
2021/08/13 13:41:54;;;;;;;;;;;;;;;21.20;100.00;99078.56;5067647;28;19932;-77
2021/08/13 13:44:24;;;;;;;;;;;;;;;21.23;100.00;99097.47;5067887;28;19924;-77
2021/08/13 13:46:56;;;;;;;;;;;;;;;21.45;100.00;99100.63;5067736;28;19936;-76
2021/08/13 13:49:25;;;;;;;;;;;;;;;20.83;100.00;99109.50;5051628;28;20315;-79
2021/08/13 13:51:53;;;;;;;;;;;;;;;21.09;100.00;99109.66;5071827;28;19978;-79
2021/08/13 13:54:21;;;;;;;;;;;;;;;21.68;100.00;99093.94;5038145;28;19925;-79
2021/08/13 13:56:48;;;;;;;;;;;;;;;22.08;100.00;99099.63;5054520;28;20006;-79
2021/08/13 13:59:16;;;;;;;;;;;;;;;22.40;100.00;99086.25;5055144;28;20015;-79
2021/08/13 14:01:43;;;;;;;;;;;;;;;22.37;100.00;99099.41;5037644;28;19962;-79
2021/08/13 14:04:11;;;;;;;;;;;;;;;22.04;100.00;99093.38;5037644;28;20342;-76